Bookmark and Share
Track history (hours):
 

Oceanographic research ship Vizconde de Eza (Spain)

Detailed information on ship capabilities available from University of Delaware's Ocean Information Center.

Last reported at 2014-Apr-16 12:21 UTC. Time now 2014-Apr-17 06:58 UTC.
Position N 43°44' W 006°18'.

Length 53 m; draft 6.2 m.

Type: Other ship. MMSI: 224582000.

NotesDate/timePositionNaut miles runAvg speedWind from/ knotsBaromVisibWave heightAir tempDewpointWater temp
2014-Apr-16 12:21N 43°44' W 006°18'910.7
2014-Apr-16 11:30N 43°44' W 006°05'5 5.7
2014-Apr-16 10:33N 43°45' W 005°58'4 3.6
2014-Apr-16 09:32N 43°49' W 005°58'5 5.0
2014-Apr-16 08:31N 43°45' W 005°54'1010.3
2014-Apr-16 07:32N 43°41' W 005°41'1010.2
2014-Apr-16 06:33N 43°39' W 005°27'6 6.2
2014-Apr-16 05:33N 43°39' W 005°19'6 6.2
2014-Apr-16 04:33N 43°41' W 005°27'8 6.8
2014-Apr-16 03:26N 43°43' W 005°37'5 5.4
2014-Apr-16 02:33N 43°41' W 005°31'7 7.3
2014-Apr-16 01:33N 43°40' W 005°21'8 7.4
2014-Apr-16 00:27N 43°39' W 005°09'  
2014-Apr-12 23:33N 44°45' W 001°59'4 3.5
2014-Apr-12 22:31N 44°45' W 002°04'6 6.2
2014-Apr-12 21:33N 44°45' W 002°13'5 5.3
2014-Apr-12 20:33N 44°45' W 002°20'4 4.2
2014-Apr-12 19:33N 44°41' W 002°21'32 0.8
2014-Apr-11 02:11N 44°13' W 001°60'21 1.7
2014-Apr-10 13:31N 43°58' W 001°39'18 0.9
2014-Apr-09 18:22N 43°40' W 001°37'3 3.8
2014-Apr-09 17:34N 43°37' W 001°38'6 6.0
2014-Apr-09 16:33N 43°31' W 001°38'5 4.7
2014-Apr-09 15:33N 43°26' W 001°38'9 9.5
2014-Apr-09 14:33N 43°27' W 001°51'2 0.0
2014-Apr-07 22:25N 43°25' W 001°50'3 3.5
2014-Apr-07 21:33N 43°28' W 001°49'7 5.7
2014-Apr-07 20:22N 43°35' W 001°49'2 0.8
2014-Apr-07 17:13N 43°37' W 001°49'14 1.7
2014-Apr-07 08:31N 43°25' W 002°00'  

Dump ship's entire track history

sailing weather and tide predictions

Vizconde de Eza — EAXB — position and weather